createdAt,value
2022-12-23T00:01:44.131Z,7.20
2022-12-23T00:04:10.584Z,6.50
2022-12-23T00:06:37.001Z,7.18
2022-12-23T00:09:03.475Z,7.40
2022-12-23T00:11:29.852Z,7.20
2022-12-23T00:14:20.610Z,7.57
2022-12-23T00:16:47.918Z,7.40
2022-12-23T00:19:14.265Z,7.60
2022-12-23T00:21:40.627Z,7.40
2022-12-23T00:24:07.019Z,8.45
2022-12-23T00:26:33.841Z,8.13
2022-12-23T00:29:00.218Z,7.60
2022-12-23T00:31:26.607Z,7.93
2022-12-23T00:33:54.177Z,7.10
2022-12-23T00:36:24.382Z,7.47
2022-12-23T00:39:09.684Z,6.70
2022-12-23T00:41:54.429Z,6.35
2022-12-23T00:44:21.028Z,6.45
2022-12-23T00:46:47.548Z,6.17
2022-12-23T00:49:36.059Z,5.80
2022-12-23T00:52:03.203Z,6.00
2022-12-23T00:54:29.762Z,6.30
2022-12-23T00:56:56.136Z,5.63
2022-12-23T00:59:22.499Z,5.50
2022-12-23T01:02:07.735Z,5.65
2022-12-23T01:04:53.129Z,5.93
2022-12-23T01:07:20.008Z,5.43
2022-12-23T01:09:46.444Z,5.40
2022-12-23T01:12:12.973Z,5.47
2022-12-23T01:14:39.592Z,4.80
2022-12-23T01:17:07.023Z,5.03
2022-12-23T01:19:33.738Z,5.45
2022-12-23T01:22:01.028Z,5.75
2022-12-23T01:24:29.449Z,5.10
2022-12-23T01:26:56.106Z,5.78
2022-12-23T01:29:22.687Z,5.97
2022-12-23T01:31:49.046Z,5.38
2022-12-23T01:34:15.430Z,5.05
2022-12-23T01:36:42.040Z,6.87
2022-12-23T01:39:08.379Z,5.22
2022-12-23T01:42:13.432Z,5.28
2022-12-23T01:44:49.912Z,5.70
2022-12-23T01:47:48.972Z,5.85
2022-12-23T01:50:36.381Z,5.40
2022-12-23T01:53:34.163Z,5.78
2022-12-23T01:56:06.345Z,5.32
2022-12-23T01:58:38.176Z,5.75
2022-12-23T02:01:24.206Z,5.43
2022-12-23T02:03:53.381Z,5.70
2022-12-23T02:06:43.560Z,5.28
2022-12-23T02:09:19.783Z,5.28
2022-12-23T02:12:24.151Z,5.10
2022-12-23T02:15:27.936Z,4.10
2022-12-23T02:18:16.296Z,4.87
2022-12-23T02:21:16.437Z,3.92
2022-12-23T02:23:51.575Z,4.53
2022-12-23T02:26:58.334Z,3.65
2022-12-23T02:29:43.432Z,3.28
2022-12-23T02:32:19.230Z,4.00
2022-12-23T02:35:01.249Z,3.85
2022-12-23T02:37:43.281Z,4.18
2022-12-23T02:40:31.361Z,4.00
2022-12-23T02:43:08.821Z,4.40
2022-12-23T02:46:01.290Z,3.67
2022-12-23T02:48:35.866Z,4.40
2022-12-23T02:51:03.890Z,4.65
2022-12-23T02:53:47.820Z,4.55
2022-12-23T02:56:15.135Z,4.15
2022-12-23T02:58:50.865Z,4.40
2022-12-23T03:01:19.365Z,4.38
2022-12-23T03:03:48.265Z,4.40
2022-12-23T03:06:24.264Z,4.07
2022-12-23T03:08:54.471Z,5.97
2022-12-23T03:11:21.022Z,4.30
2022-12-23T03:13:50.192Z,4.40
2022-12-23T03:16:27.737Z,5.60
2022-12-23T03:19:09.925Z,4.57
2022-12-23T03:21:48.026Z,4.72
2022-12-23T03:24:33.700Z,5.30
2022-12-23T03:27:30.490Z,4.75
2022-12-23T03:30:08.096Z,4.63
2022-12-23T03:32:46.011Z,5.18
2022-12-23T03:35:17.577Z,5.25
2022-12-23T03:37:48.052Z,4.77
2022-12-23T03:40:26.943Z,5.13
2022-12-23T03:43:00.464Z,5.05
2022-12-23T03:45:40.638Z,5.40
2022-12-23T03:48:23.840Z,5.28
2022-12-23T03:50:55.819Z,4.70
2022-12-23T03:53:32.510Z,4.93
2022-12-23T03:56:14.829Z,4.25
2022-12-23T03:58:58.265Z,5.03
2022-12-23T04:01:52.965Z,4.90
2022-12-23T04:05:05.731Z,4.90
2022-12-23T04:07:39.343Z,3.88
2022-12-23T04:10:07.667Z,3.90
2022-12-23T04:12:34.218Z,4.10
2022-12-23T04:15:00.774Z,4.40
2022-12-23T04:17:28.749Z,3.87
2022-12-23T04:19:55.563Z,4.15
2022-12-23T04:22:21.950Z,4.10
2022-12-23T04:24:48.283Z,3.78
2022-12-23T04:27:16.332Z,3.60
2022-12-23T04:29:43.855Z,3.20
2022-12-23T04:32:10.864Z,3.38
2022-12-23T04:34:37.186Z,3.40
2022-12-23T04:37:04.801Z,3.15
2022-12-23T04:39:31.269Z,3.20
2022-12-23T04:41:57.571Z,3.53
2022-12-23T04:44:23.919Z,3.58
2022-12-23T04:46:50.308Z,3.25
2022-12-23T04:49:16.633Z,3.45
2022-12-23T04:51:42.961Z,3.45
2022-12-23T04:54:10.058Z,3.50
2022-12-23T04:56:36.370Z,3.15
2022-12-23T04:59:04.186Z,2.80
2022-12-23T05:01:41.043Z,2.72
2022-12-23T05:04:08.768Z,3.70
2022-12-23T05:06:42.428Z,2.73
2022-12-23T05:09:14.183Z,3.33
2022-12-23T05:11:42.560Z,3.50
2022-12-23T05:14:21.825Z,3.10
2022-12-23T05:16:48.195Z,3.53
2022-12-23T05:19:14.625Z,3.77
2022-12-23T05:21:43.315Z,3.60
2022-12-23T05:24:16.342Z,4.40
2022-12-23T05:26:52.868Z,4.07
2022-12-23T05:29:29.238Z,4.60
2022-12-23T05:32:02.682Z,3.97
2022-12-23T05:34:29.026Z,3.53
2022-12-23T05:37:02.520Z,4.40
2022-12-23T05:39:42.683Z,3.60
2022-12-23T05:42:11.885Z,3.97
2022-12-23T05:44:44.921Z,3.60
2022-12-23T05:47:14.604Z,3.40
2022-12-23T05:49:56.448Z,3.47
2022-12-23T05:52:32.091Z,3.05
2022-12-23T05:55:31.884Z,3.22
2022-12-23T05:58:06.842Z,2.70
2022-12-23T06:00:40.288Z,3.40
2022-12-23T06:03:38.447Z,3.13
2022-12-23T06:06:26.508Z,2.97
2022-12-23T06:09:11.599Z,3.15
2022-12-23T06:11:51.137Z,3.53
2022-12-23T06:17:12.217Z,3.58
2022-12-23T06:19:51.050Z,3.33
2022-12-23T06:26:01.017Z,3.87
2022-12-23T06:29:04.048Z,3.28
2022-12-23T06:32:10.188Z,3.60
2022-12-23T06:34:51.988Z,3.88
2022-12-23T06:37:39.116Z,3.30
2022-12-23T06:40:43.155Z,3.60
2022-12-23T06:44:14.367Z,3.53
2022-12-23T06:46:29.586Z,4.05
2022-12-23T06:48:56.044Z,2.33
2022-12-23T06:51:22.583Z,2.50
2022-12-23T06:53:48.946Z,2.57
2022-12-23T06:56:15.261Z,2.83
2022-12-23T06:58:41.668Z,3.15
2022-12-23T07:01:09.992Z,2.80
2022-12-23T07:03:36.939Z,3.63
2022-12-23T07:06:03.632Z,2.73
2022-12-23T07:08:30.098Z,2.83
2022-12-23T07:11:03.476Z,3.42
2022-12-23T07:13:31.164Z,3.40
2022-12-23T07:15:57.713Z,3.53
2022-12-23T07:18:25.042Z,3.30
2022-12-23T07:20:52.246Z,4.10
2022-12-23T07:23:18.772Z,4.18
2022-12-23T07:25:45.348Z,3.40
2022-12-23T07:28:11.737Z,2.97
2022-12-23T07:30:38.693Z,3.50
2022-12-23T07:33:05.064Z,3.58
2022-12-23T07:35:31.688Z,4.18
2022-12-23T07:37:59.363Z,3.95
2022-12-23T07:40:26.825Z,4.47
2022-12-23T07:42:59.719Z,4.67
2022-12-23T07:45:28.394Z,4.35
2022-12-23T07:47:56.794Z,4.30
2022-12-23T07:50:24.206Z,5.07
2022-12-23T07:52:51.993Z,4.57
2022-12-23T07:55:18.877Z,5.57
2022-12-23T07:57:50.319Z,5.13
2022-12-23T08:00:17.223Z,5.18
2022-12-23T08:02:43.863Z,4.95
2022-12-23T08:05:11.168Z,6.57
2022-12-23T08:07:38.283Z,5.10
2022-12-23T08:10:05.389Z,5.32
2022-12-23T08:12:32.366Z,5.63
2022-12-23T08:14:59.100Z,6.47
2022-12-23T08:17:29.942Z,7.65
2022-12-23T08:19:57.158Z,7.37
2022-12-23T08:22:24.023Z,7.18
2022-12-23T08:24:50.403Z,7.53
2022-12-23T08:27:16.853Z,7.40
2022-12-23T08:29:43.165Z,7.78
2022-12-23T08:32:09.512Z,7.77
2022-12-23T08:34:36.423Z,8.70
2022-12-23T08:37:02.854Z,8.95
2022-12-23T08:39:29.206Z,7.78
2022-12-23T08:41:55.641Z,8.23
2022-12-23T08:44:22.281Z,8.83
2022-12-23T08:46:48.717Z,8.20
2022-12-23T08:49:15.197Z,8.75
2022-12-23T08:51:42.399Z,8.05
2022-12-23T08:54:10.043Z,9.20
2022-12-23T08:56:40.351Z,8.90
2022-12-23T08:59:07.543Z,8.65
2022-12-23T09:01:34.659Z,9.98
2022-12-23T09:04:05.565Z,9.98
2022-12-23T09:06:35.140Z,9.15
2022-12-23T09:09:01.613Z,9.57
2022-12-23T09:11:29.848Z,9.43
2022-12-23T09:13:58.819Z,9.70
2022-12-23T09:16:25.553Z,9.15
2022-12-23T09:18:52.074Z,8.85
2022-12-23T09:21:20.772Z,9.10
2022-12-23T09:23:47.902Z,9.57
2022-12-23T09:26:25.566Z,9.65
2022-12-23T09:28:52.904Z,9.07
2022-12-23T09:31:20.599Z,9.88
2022-12-23T09:33:49.056Z,10.47
2022-12-23T09:36:15.549Z,9.77
2022-12-23T09:38:41.917Z,9.20
2022-12-23T09:41:32.636Z,9.80
2022-12-23T09:44:36.312Z,9.50
2022-12-23T09:47:12.056Z,9.73
2022-12-23T09:49:51.386Z,9.40
2022-12-23T09:52:44.786Z,9.73
2022-12-23T09:55:12.340Z,11.43
2022-12-23T09:57:56.620Z,10.90
2022-12-23T10:00:23.556Z,10.50
2022-12-23T10:03:14.565Z,9.93
2022-12-23T10:05:56.070Z,9.68
2022-12-23T10:08:34.268Z,9.85
2022-12-23T10:11:17.834Z,8.90
2022-12-23T10:13:50.868Z,8.20
2022-12-23T10:16:25.465Z,8.55
2022-12-23T10:19:08.911Z,8.18
2022-12-23T10:21:47.120Z,8.02
2022-12-23T10:24:26.209Z,8.43
2022-12-23T10:26:55.647Z,7.43
2022-12-23T10:29:30.563Z,8.27
2022-12-23T10:32:16.974Z,7.93
2022-12-23T10:35:13.251Z,7.05
2022-12-23T10:38:02.926Z,7.93
2022-12-23T10:40:45.330Z,6.60
2022-12-23T10:43:14.699Z,7.45
2022-12-23T10:45:48.365Z,7.72
2022-12-23T10:48:29.163Z,7.05
2022-12-23T10:51:09.817Z,6.05
2022-12-23T10:53:41.663Z,7.03
2022-12-23T10:56:08.893Z,6.78
2022-12-23T10:58:41.989Z,7.10
2022-12-23T11:01:16.064Z,7.60
2022-12-23T11:03:57.594Z,8.77
2022-12-23T11:06:25.313Z,7.27
2022-12-23T11:08:52.306Z,9.13
2022-12-23T11:11:18.850Z,8.75
2022-12-23T11:13:46.655Z,8.77
2022-12-23T11:16:27.068Z,9.20
2022-12-23T11:19:14.471Z,9.10
2022-12-23T11:21:56.917Z,8.68
2022-12-23T11:24:24.532Z,9.15
2022-12-23T11:27:01.574Z,10.05
2022-12-23T11:29:33.318Z,8.85
2022-12-23T11:32:01.471Z,10.67
2022-12-23T11:34:33.252Z,10.88
2022-12-23T11:37:06.930Z,13.05
2022-12-23T11:39:36.716Z,15.50
2022-12-23T11:42:15.722Z,15.85
2022-12-23T11:44:48.847Z,15.67
2022-12-23T11:47:37.153Z,15.23
2022-12-23T11:50:31.614Z,16.65
2022-12-23T11:53:03.564Z,17.80
2022-12-23T11:55:32.858Z,16.13
2022-12-23T11:58:01.738Z,16.40
2022-12-23T12:00:56.678Z,18.85
2022-12-23T12:03:31.698Z,16.10
2022-12-23T12:06:01.127Z,16.10
2022-12-23T12:08:34.119Z,17.08
2022-12-23T12:11:05.812Z,16.37
2022-12-23T12:13:40.931Z,15.85
2022-12-23T12:16:19.909Z,14.40
2022-12-23T12:18:53.746Z,17.08
2022-12-23T12:21:28.137Z,15.95
2022-12-23T12:24:17.961Z,15.13
2022-12-23T12:26:51.252Z,14.05
2022-12-23T12:29:26.815Z,12.63
2022-12-23T12:31:56.995Z,12.82
2022-12-23T12:35:00.949Z,12.45
2022-12-23T12:37:48.090Z,12.00
2022-12-23T12:40:38.565Z,12.57
2022-12-23T12:43:18.505Z,12.20
2022-12-23T12:45:53.811Z,11.13
2022-12-23T12:48:34.633Z,11.15
2022-12-23T12:51:21.200Z,10.43
2022-12-23T12:54:06.332Z,10.48
2022-12-23T12:56:40.370Z,10.52
2022-12-23T12:59:18.702Z,10.80
2022-12-23T13:01:51.203Z,9.30
2022-12-23T13:04:26.695Z,10.40
2022-12-23T13:07:15.352Z,10.75
2022-12-23T13:09:53.581Z,10.27
2022-12-23T13:12:37.081Z,10.23
2022-12-23T13:15:29.477Z,11.77
2022-12-23T13:18:22.244Z,10.80
2022-12-23T13:20:56.129Z,10.15
2022-12-23T13:23:43.557Z,10.75
2022-12-23T13:26:35.980Z,11.00
2022-12-23T13:29:41.154Z,10.75
2022-12-23T13:32:30.026Z,10.37
2022-12-23T13:35:08.277Z,11.38
2022-12-23T13:38:07.934Z,11.02
2022-12-23T13:40:59.360Z,11.07
2022-12-23T13:43:35.755Z,10.43
2022-12-23T13:46:08.691Z,10.70
2022-12-23T13:48:57.854Z,10.48
2022-12-23T13:51:34.465Z,10.35
2022-12-23T13:54:38.029Z,9.75
2022-12-23T13:57:08.531Z,10.55
2022-12-23T13:59:44.237Z,8.77
2022-12-23T14:02:49.303Z,9.20
2022-12-23T14:05:37.223Z,8.77
2022-12-23T14:08:23.897Z,8.80
2022-12-23T14:11:17.833Z,8.50
2022-12-23T14:13:50.207Z,8.43
2022-12-23T14:16:47.667Z,8.60
2022-12-23T14:19:55.379Z,8.93
2022-12-23T14:22:39.028Z,7.97
2022-12-23T14:25:36.449Z,8.85
2022-12-23T14:28:15.141Z,8.27
2022-12-23T14:30:45.754Z,9.60
2022-12-23T14:33:23.848Z,9.43
2022-12-23T14:35:53.437Z,10.27
2022-12-23T14:38:26.137Z,8.65
2022-12-23T14:40:54.233Z,8.40
2022-12-23T14:43:26.659Z,8.75
2022-12-23T14:45:57.853Z,8.27
2022-12-23T14:48:33.261Z,7.68
2022-12-23T14:51:08.651Z,8.00
2022-12-23T14:53:37.022Z,7.00
2022-12-23T14:56:12.024Z,7.75
2022-12-23T14:58:54.404Z,7.68
2022-12-23T15:01:39.526Z,7.03
2022-12-23T15:04:18.985Z,8.00
2022-12-23T15:06:49.325Z,6.97
2022-12-23T15:09:23.652Z,8.00
2022-12-23T15:11:50.475Z,7.05
2022-12-23T15:14:32.057Z,7.20
2022-12-23T15:16:58.385Z,7.20
2022-12-23T15:19:27.113Z,7.50
2022-12-23T15:22:20.674Z,7.25
2022-12-23T15:24:50.059Z,7.50
2022-12-23T15:27:26.975Z,6.82
2022-12-23T15:29:54.592Z,7.95
2022-12-23T15:32:23.740Z,6.87
2022-12-23T15:34:52.585Z,6.95
2022-12-23T15:37:27.549Z,8.02
2022-12-23T15:40:03.362Z,6.60
2022-12-23T15:42:34.043Z,6.80
2022-12-23T15:45:00.425Z,6.67
2022-12-23T15:47:29.090Z,7.25
2022-12-23T15:50:00.558Z,7.65
2022-12-23T15:52:32.538Z,7.47
2022-12-23T15:55:14.313Z,7.45
2022-12-23T15:57:50.438Z,7.43
2022-12-23T16:00:27.846Z,6.85
2022-12-23T16:03:01.567Z,7.00
2022-12-23T16:05:37.520Z,7.00
2022-12-23T16:08:15.150Z,6.95
2022-12-23T16:10:56.000Z,6.87
2022-12-23T16:13:23.319Z,7.47
2022-12-23T16:15:49.786Z,7.97
2022-12-23T16:18:19.118Z,7.22
2022-12-23T16:20:49.282Z,8.25
2022-12-23T16:23:16.940Z,7.17
2022-12-23T16:25:50.790Z,7.28
2022-12-23T16:28:26.103Z,7.47
2022-12-23T16:30:56.292Z,7.30
2022-12-23T16:33:40.644Z,7.82
2022-12-23T16:36:25.321Z,7.03
2022-12-23T16:38:58.615Z,7.57
2022-12-23T16:41:24.965Z,8.27
2022-12-23T16:43:52.743Z,7.10
2022-12-23T16:46:22.009Z,7.57
2022-12-23T16:49:00.628Z,7.50
2022-12-23T16:51:28.773Z,6.78
2022-12-23T16:53:57.091Z,7.85
2022-12-23T16:56:27.894Z,7.82
2022-12-23T16:58:54.285Z,7.93
2022-12-23T17:01:24.758Z,8.13
2022-12-23T17:03:51.956Z,7.70
2022-12-23T17:06:19.123Z,8.30
2022-12-23T17:08:45.864Z,7.95
2022-12-23T17:11:37.304Z,8.77
2022-12-23T17:14:09.085Z,7.13
2022-12-23T17:16:38.329Z,8.38
2022-12-23T17:19:05.452Z,7.68
2022-12-23T17:21:34.855Z,8.27
2022-12-23T17:24:06.235Z,8.23
2022-12-23T17:26:32.868Z,8.77
2022-12-23T17:28:59.198Z,7.47
2022-12-23T17:31:27.264Z,8.45
2022-12-23T17:33:54.382Z,9.20
2022-12-23T17:36:21.501Z,8.50
2022-12-23T17:38:47.898Z,7.87
2022-12-23T17:41:28.645Z,7.65
2022-12-23T17:43:55.745Z,7.47
2022-12-23T17:46:22.640Z,8.63
2022-12-23T17:48:49.160Z,8.90
2022-12-23T17:51:17.556Z,8.57
2022-12-23T17:53:45.311Z,8.00
2022-12-23T17:56:18.187Z,8.25
2022-12-23T17:58:46.156Z,8.32
2022-12-23T18:01:23.852Z,8.40
2022-12-23T18:03:50.291Z,7.33
2022-12-23T18:06:18.674Z,8.30
2022-12-23T18:08:45.924Z,7.38
2022-12-23T18:11:20.666Z,6.47
2022-12-23T18:13:48.951Z,7.38
2022-12-23T18:16:15.348Z,6.27
2022-12-23T18:18:46.246Z,6.60
2022-12-23T18:21:23.983Z,6.97
2022-12-23T18:23:51.837Z,5.75
2022-12-23T18:26:18.146Z,6.25
2022-12-23T18:28:44.775Z,4.87
2022-12-23T18:31:19.425Z,5.32
2022-12-23T18:33:46.432Z,3.92
2022-12-23T18:36:22.340Z,4.10
2022-12-23T18:38:48.918Z,4.13
2022-12-23T18:41:15.361Z,4.63
2022-12-23T18:43:41.765Z,4.05
2022-12-23T18:46:08.175Z,4.32
2022-12-23T18:48:34.539Z,4.10
2022-12-23T18:51:00.854Z,4.47
2022-12-23T18:53:27.178Z,4.60
2022-12-23T18:55:54.301Z,3.88
2022-12-23T18:58:21.750Z,4.47
2022-12-23T19:00:50.025Z,4.45
2022-12-23T19:03:20.702Z,3.70
2022-12-23T19:05:48.753Z,4.33
2022-12-23T19:08:18.961Z,3.85
2022-12-23T19:10:48.772Z,4.28
2022-12-23T19:13:15.561Z,4.05
2022-12-23T19:15:43.553Z,4.07
2022-12-23T19:18:15.199Z,4.33
2022-12-23T19:20:42.980Z,5.47
2022-12-23T19:23:10.337Z,4.53
2022-12-23T19:25:39.661Z,3.42
2022-12-23T19:28:05.973Z,4.70
2022-12-23T19:30:32.352Z,4.03
2022-12-23T19:32:58.700Z,3.25
2022-12-23T19:35:25.018Z,4.55
2022-12-23T19:37:51.423Z,3.90
2022-12-23T19:40:18.810Z,4.45
2022-12-23T19:42:45.208Z,4.07
2022-12-23T19:45:11.866Z,3.25
2022-12-23T19:47:38.225Z,3.95
2022-12-23T19:50:06.638Z,3.90
2022-12-23T19:52:33.424Z,4.18
2022-12-23T19:54:59.745Z,4.17
2022-12-23T19:57:26.106Z,3.75
2022-12-23T19:59:52.458Z,4.07
2022-12-23T20:02:19.923Z,4.20
2022-12-23T20:04:46.724Z,4.40
2022-12-23T20:07:13.185Z,3.53
2022-12-23T20:09:39.525Z,4.20
2022-12-23T20:12:05.996Z,4.07
2022-12-23T20:14:34.424Z,3.50
2022-12-23T20:17:01.079Z,3.60
2022-12-23T20:19:27.759Z,3.33
2022-12-23T20:21:54.123Z,3.58
2022-12-23T20:24:20.421Z,4.15
2022-12-23T20:26:46.975Z,4.57
2022-12-23T20:29:13.425Z,3.88
2022-12-23T20:31:40.390Z,4.93
2022-12-23T20:34:08.863Z,3.35
2022-12-23T20:36:36.440Z,3.72
2022-12-23T20:39:04.067Z,3.95
2022-12-23T20:41:31.733Z,3.70
2022-12-23T20:46:45.359Z,2.22
2022-12-23T20:49:12.607Z,2.88
2022-12-23T20:51:38.922Z,3.13
2022-12-23T20:54:05.300Z,3.15
2022-12-23T20:56:31.731Z,3.27
2022-12-23T20:58:59.395Z,3.83
2022-12-23T21:01:37.960Z,2.22
2022-12-23T21:04:07.518Z,2.55
2022-12-23T21:06:34.272Z,1.85
2022-12-23T21:09:01.406Z,2.13
2022-12-23T21:11:29.596Z,2.35
2022-12-23T21:14:01.173Z,1.92
2022-12-23T21:16:31.954Z,2.28
2022-12-23T21:18:58.889Z,1.75
2022-12-23T21:21:27.421Z,2.43
2022-12-23T21:23:56.102Z,2.30
2022-12-23T21:26:24.995Z,2.15
2022-12-23T21:28:53.115Z,1.63
2022-12-23T21:31:22.452Z,3.22
2022-12-23T21:33:50.152Z,2.33
2022-12-23T21:36:20.825Z,2.17
2022-12-23T21:38:48.111Z,2.10
2022-12-23T21:41:21.527Z,2.08
2022-12-23T21:43:49.168Z,1.60
2022-12-23T21:46:20.494Z,2.17
2022-12-23T21:48:48.042Z,2.78
2022-12-23T21:51:22.382Z,1.48
2022-12-23T21:53:51.344Z,2.35
2022-12-23T21:56:19.917Z,1.90
2022-12-23T21:58:47.043Z,2.63
2022-12-23T22:01:18.904Z,2.22
2022-12-23T22:03:46.430Z,2.75
2022-12-23T22:06:18.381Z,1.55
2022-12-23T22:08:44.707Z,1.75
2022-12-23T22:11:17.063Z,2.63
2022-12-23T22:13:44.680Z,2.40
2022-12-23T22:16:17.363Z,1.80
2022-12-23T22:18:44.602Z,2.95
2022-12-23T22:21:13.808Z,2.60
2022-12-23T22:23:40.959Z,2.80
2022-12-23T22:26:08.502Z,2.20
2022-12-23T22:28:36.556Z,2.40
2022-12-23T22:31:08.483Z,1.77
2022-12-23T22:33:35.166Z,2.10
2022-12-23T22:36:01.558Z,2.23
2022-12-23T22:38:27.902Z,2.00
2022-12-23T22:40:54.327Z,2.30
2022-12-23T22:43:20.649Z,2.75
2022-12-23T22:45:47.277Z,2.25
2022-12-23T22:48:13.847Z,1.63
2022-12-23T22:50:40.213Z,2.00
2022-12-23T22:53:06.569Z,1.95
2022-12-23T22:55:32.970Z,2.97
2022-12-23T22:57:59.380Z,3.33
2022-12-23T23:00:25.676Z,2.50
2022-12-23T23:02:52.223Z,2.00
2022-12-23T23:05:18.573Z,2.70
2022-12-23T23:07:44.970Z,2.65
2022-12-23T23:10:11.395Z,3.20
2022-12-23T23:12:37.825Z,1.80
2022-12-23T23:15:04.393Z,2.15
2022-12-23T23:17:30.737Z,1.83
2022-12-23T23:19:57.103Z,2.30
2022-12-23T23:22:24.411Z,2.63
2022-12-23T23:24:51.855Z,3.57
2022-12-23T23:27:18.670Z,1.77
2022-12-23T23:29:44.975Z,2.55
2022-12-23T23:32:11.484Z,2.65
2022-12-23T23:34:37.936Z,1.75
2022-12-23T23:37:05.036Z,2.33
2022-12-23T23:39:31.423Z,2.33
2022-12-23T23:41:57.767Z,2.33
2022-12-23T23:44:24.085Z,2.35
2022-12-23T23:46:50.430Z,1.90
2022-12-23T23:49:16.787Z,2.10
2022-12-23T23:51:43.173Z,2.17
2022-12-23T23:54:09.496Z,2.53
2022-12-23T23:56:38.539Z,2.40
2022-12-23T23:59:05.704Z,2.47
